sensor_id;sensor_type;location;lat;lon;timestamp;P1;P2;P0
66336;PMS1003;53139;45.576;5.304;2023-05-10T00:39:32;1.00;1.00;1.00
66336;PMS1003;53139;45.576;5.304;2023-05-10T00:43:32;0.00;0.00;0.00
66336;PMS1003;53139;45.576;5.304;2023-05-10T00:47:35;1.00;1.00;1.00
66336;PMS1003;53139;45.576;5.304;2023-05-10T00:51:28;0.00;0.00;0.00
66336;PMS1003;53139;45.576;5.304;2023-05-10T00:55:39;0.00;0.00;0.00
66336;PMS1003;53139;45.576;5.304;2023-05-10T00:59:59;0.00;0.00;0.00
66336;PMS1003;53139;45.576;5.304;2023-05-10T01:08:29;0.00;0.00;0.00
66336;PMS1003;53139;45.576;5.304;2023-05-10T01:12:27;0.50;0.25;0.25
66336;PMS1003;53139;45.576;5.304;2023-05-10T01:16:59;0.00;0.00;0.00
66336;PMS1003;53139;45.576;5.304;2023-05-10T01:25:44;1.00;0.00;0.00
66336;PMS1003;53139;45.576;5.304;2023-05-10T01:33:56;0.00;0.00;0.00
66336;PMS1003;53139;45.576;5.304;2023-05-10T01:37:57;0.50;0.50;0.00
66336;PMS1003;53139;45.576;5.304;2023-05-10T01:42:36;0.25;0.25;0.00
66336;PMS1003;53139;45.576;5.304;2023-05-10T01:46:41;0.00;0.00;0.00
66336;PMS1003;53139;45.576;5.304;2023-05-10T01:50:48;1.00;1.00;1.00
66336;PMS1003;53139;45.576;5.304;2023-05-10T01:58:32;1.00;1.00;0.00
66336;PMS1003;53139;45.576;5.304;2023-05-10T02:02:46;1.75;0.00;0.00
66336;PMS1003;53139;45.576;5.304;2023-05-10T02:10:58;0.00;0.00;0.00
66336;PMS1003;53139;45.576;5.304;2023-05-10T02:14:55;1.00;1.00;0.75
66336;PMS1003;53139;45.576;5.304;2023-05-10T02:18:48;1.00;1.00;0.25
66336;PMS1003;53139;45.576;5.304;2023-05-10T02:23:06;2.00;1.75;1.00
66336;PMS1003;53139;45.576;5.304;2023-05-10T02:27:16;1.75;1.00;1.00
66336;PMS1003;53139;45.576;5.304;2023-05-10T02:31:36;1.00;1.00;0.25
66336;PMS1003;53139;45.576;5.304;2023-05-10T02:35:43;1.00;1.00;0.00
66336;PMS1003;53139;45.576;5.304;2023-05-10T02:40:03;1.25;1.00;1.00
66336;PMS1003;53139;45.576;5.304;2023-05-10T02:44:12;4.00;2.00;2.00
66336;PMS1003;53139;45.576;5.304;2023-05-10T02:48:16;1.25;1.25;1.00
66336;PMS1003;53139;45.576;5.304;2023-05-10T02:52:19;0.50;0.00;0.00
66336;PMS1003;53139;45.576;5.304;2023-05-10T02:56:46;1.00;1.00;0.50
66336;PMS1003;53139;45.576;5.304;2023-05-10T03:00:43;0.00;0.00;0.00
66336;PMS1003;53139;45.576;5.304;2023-05-10T03:05:00;2.00;0.00;0.00
66336;PMS1003;53139;45.576;5.304;2023-05-10T03:09:13;1.00;1.00;0.00
66336;PMS1003;53139;45.576;5.304;2023-05-10T03:26:17;0.50;0.00;0.00
66336;PMS1003;53139;45.576;5.304;2023-05-10T03:34:14;1.00;1.00;1.00
66336;PMS1003;53139;45.576;5.304;2023-05-10T03:42:57;0.75;0.75;0.00
66336;PMS1003;53139;45.576;5.304;2023-05-10T03:46:55;3.00;0.00;0.00
66336;PMS1003;53139;45.576;5.304;2023-05-10T03:51:22;2.00;1.00;1.00
66336;PMS1003;53139;45.576;5.304;2023-05-10T03:55:21;1.50;1.00;1.00
66336;PMS1003;53139;45.576;5.304;2023-05-10T03:59:49;1.00;1.00;1.00
66336;PMS1003;53139;45.576;5.304;2023-05-10T04:03:54;1.00;1.00;1.00
66336;PMS1003;53139;45.576;5.304;2023-05-10T04:08:01;1.50;1.00;1.00
66336;PMS1003;53139;45.576;5.304;2023-05-10T04:12:02;1.00;0.00;0.00
66336;PMS1003;53139;45.576;5.304;2023-05-10T04:16:04;0.00;0.00;0.00
66336;PMS1003;53139;45.576;5.304;2023-05-10T04:20:06;1.00;1.00;1.00
66336;PMS1003;53139;45.576;5.304;2023-05-10T04:24:14;0.00;0.00;0.00
66336;PMS1003;53139;45.576;5.304;2023-05-10T04:28:23;0.00;0.00;0.00
66336;PMS1003;53139;45.576;5.304;2023-05-10T04:32:26;2.00;2.00;2.00
66336;PMS1003;53139;45.576;5.304;2023-05-10T04:36:34;1.00;1.00;0.50
66336;PMS1003;53139;45.576;5.304;2023-05-10T04:40:50;4.00;4.00;3.00
66336;PMS1003;53139;45.576;5.304;2023-05-10T04:44:50;3.00;2.00;1.25
66336;PMS1003;53139;45.576;5.304;2023-05-10T04:48:50;1.00;1.00;0.75
66336;PMS1003;53139;45.576;5.304;2023-05-10T05:00:47;0.50;0.50;0.00
66336;PMS1003;53139;45.576;5.304;2023-05-10T05:12:49;3.25;2.00;2.00
66336;PMS1003;53139;45.576;5.304;2023-05-10T05:16:35;3.25;2.00;1.75
66336;PMS1003;53139;45.576;5.304;2023-05-10T05:20:35;4.00;2.00;2.00
66336;PMS1003;53139;45.576;5.304;2023-05-10T05:24:20;2.25;2.25;1.50
66336;PMS1003;53139;45.576;5.304;2023-05-10T05:28:14;1.75;1.75;1.50
66336;PMS1003;53139;45.576;5.304;2023-05-10T05:32:14;3.50;3.00;3.00
66336;PMS1003;53139;45.576;5.304;2023-05-10T05:36:02;2.75;2.75;2.00
66336;PMS1003;53139;45.576;5.304;2023-05-10T05:40:19;5.00;2.00;2.00
66336;PMS1003;53139;45.576;5.304;2023-05-10T05:44:24;1.00;1.00;0.00
66336;PMS1003;53139;45.576;5.304;2023-05-10T05:48:11;1.50;1.50;1.25
66336;PMS1003;53139;45.576;5.304;2023-05-10T05:56:04;1.75;1.00;1.00
66336;PMS1003;53139;45.576;5.304;2023-05-10T05:59:07;3.00;2.00;2.00
66336;PMS1003;53139;45.576;5.304;2023-05-10T06:03:18;3.25;3.00;2.00
66336;PMS1003;53139;45.576;5.304;2023-05-10T06:07:22;2.75;2.75;2.00
66336;PMS1003;53139;45.576;5.304;2023-05-10T06:11:19;2.00;2.00;1.50
66336;PMS1003;53139;45.576;5.304;2023-05-10T06:15:21;2.00;2.00;2.00
66336;PMS1003;53139;45.576;5.304;2023-05-10T06:19:27;2.00;1.50;1.00
66336;PMS1003;53139;45.576;5.304;2023-05-10T06:23:23;3.00;2.00;1.00
66336;PMS1003;53139;45.576;5.304;2023-05-10T06:28:03;3.75;3.00;1.50
66336;PMS1003;53139;45.576;5.304;2023-05-10T06:32:06;2.00;1.00;1.00
66336;PMS1003;53139;45.576;5.304;2023-05-10T06:36:22;1.50;1.00;1.00
66336;PMS1003;53139;45.576;5.304;2023-05-10T06:40:36;1.25;1.25;1.00
66336;PMS1003;53139;45.576;5.304;2023-05-10T06:44:37;1.25;1.25;0.50
66336;PMS1003;53139;45.576;5.304;2023-05-10T06:48:23;2.75;2.00;1.25
66336;PMS1003;53139;45.576;5.304;2023-05-10T06:51:54;2.00;2.00;1.00
66336;PMS1003;53139;45.576;5.304;2023-05-10T06:55:30;2.50;1.50;1.00
66336;PMS1003;53139;45.576;5.304;2023-05-10T06:59:18;3.00;1.50;1.00
66336;PMS1003;53139;45.576;5.304;2023-05-10T07:03:25;1.00;1.00;1.00
66336;PMS1003;53139;45.576;5.304;2023-05-10T07:07:14;1.00;0.75;0.00
66336;PMS1003;53139;45.576;5.304;2023-05-10T07:11:14;2.75;2.00;1.50
66336;PMS1003;53139;45.576;5.304;2023-05-10T07:15:04;1.50;1.00;1.00
66336;PMS1003;53139;45.576;5.304;2023-05-10T07:23:46;0.75;0.75;0.50
66336;PMS1003;53139;45.576;5.304;2023-05-10T07:28:05;2.00;2.00;1.00
66336;PMS1003;53139;45.576;5.304;2023-05-10T20:25:46;2.25;2.00;1.75
66336;PMS1003;53139;45.576;5.304;2023-05-10T20:28:50;2.00;2.00;1.00
66336;PMS1003;53139;45.576;5.304;2023-05-10T20:31:51;3.50;3.00;2.00
66336;PMS1003;53139;45.576;5.304;2023-05-10T20:34:51;2.00;1.00;0.75
66336;PMS1003;53139;45.576;5.304;2023-05-10T20:37:52;2.00;2.00;2.00
66336;PMS1003;53139;45.576;5.304;2023-05-10T20:40:52;2.00;2.00;1.67
66336;PMS1003;53139;45.576;5.304;2023-05-10T20:43:52;1.75;1.75;1.00
66336;PMS1003;53139;45.576;5.304;2023-05-10T20:46:53;1.00;1.00;1.00
66336;PMS1003;53139;45.576;5.304;2023-05-10T20:49:53;5.50;1.50;1.00
66336;PMS1003;53139;45.576;5.304;2023-05-10T20:52:53;3.00;1.00;1.00
66336;PMS1003;53139;45.576;5.304;2023-05-10T20:55:54;2.00;2.00;2.00
66336;PMS1003;53139;45.576;5.304;2023-05-10T20:58:54;3.33;1.00;1.00
66336;PMS1003;53139;45.576;5.304;2023-05-10T21:01:57;1.00;1.00;1.00
66336;PMS1003;53139;45.576;5.304;2023-05-10T21:04:58;2.00;1.75;1.25
66336;PMS1003;53139;45.576;5.304;2023-05-10T21:07:58;3.00;3.00;2.00
66336;PMS1003;53139;45.576;5.304;2023-05-10T21:11:00;2.00;2.00;1.75
66336;PMS1003;53139;45.576;5.304;2023-05-10T21:14:03;2.00;2.00;2.00
66336;PMS1003;53139;45.576;5.304;2023-05-10T21:17:04;1.75;1.25;1.00
66336;PMS1003;53139;45.576;5.304;2023-05-10T21:20:05;3.50;3.00;2.25
66336;PMS1003;53139;45.576;5.304;2023-05-10T21:23:05;3.00;2.00;1.00
66336;PMS1003;53139;45.576;5.304;2023-05-10T21:26:06;2.00;2.00;2.00
66336;PMS1003;53139;45.576;5.304;2023-05-10T21:29:06;3.25;2.00;2.00
66336;PMS1003;53139;45.576;5.304;2023-05-10T21:32:06;1.75;1.75;1.25
66336;PMS1003;53139;45.576;5.304;2023-05-10T21:35:07;6.00;2.50;2.00
66336;PMS1003;53139;45.576;5.304;2023-05-10T21:38:08;5.00;2.00;2.00
66336;PMS1003;53139;45.576;5.304;2023-05-10T21:41:09;4.00;2.25;2.00
66336;PMS1003;53139;45.576;5.304;2023-05-10T21:44:09;2.00;1.00;1.00
66336;PMS1003;53139;45.576;5.304;2023-05-10T21:47:10;3.25;1.50;1.00
66336;PMS1003;53139;45.576;5.304;2023-05-10T21:50:10;3.00;2.00;2.00
66336;PMS1003;53139;45.576;5.304;2023-05-10T21:53:11;4.50;3.75;2.50
66336;PMS1003;53139;45.576;5.304;2023-05-10T21:56:11;2.25;2.25;2.00
66336;PMS1003;53139;45.576;5.304;2023-05-10T21:59:12;3.75;3.00;2.00
66336;PMS1003;53139;45.576;5.304;2023-05-10T22:02:13;3.00;3.00;2.00
66336;PMS1003;53139;45.576;5.304;2023-05-10T22:05:13;2.25;2.25;1.25
66336;PMS1003;53139;45.576;5.304;2023-05-10T22:08:14;4.00;3.25;3.00
66336;PMS1003;53139;45.576;5.304;2023-05-10T22:11:14;3.00;3.00;2.25
66336;PMS1003;53139;45.576;5.304;2023-05-10T22:14:14;2.00;1.50;1.50
66336;PMS1003;53139;45.576;5.304;2023-05-10T22:17:15;5.00;4.75;3.00
66336;PMS1003;53139;45.576;5.304;2023-05-10T22:20:15;2.00;2.00;2.00
66336;PMS1003;53139;45.576;5.304;2023-05-10T22:23:16;3.00;2.50;2.00
66336;PMS1003;53139;45.576;5.304;2023-05-10T22:26:16;5.00;4.25;4.00
66336;PMS1003;53139;45.576;5.304;2023-05-10T22:29:16;3.00;2.50;1.50
66336;PMS1003;53139;45.576;5.304;2023-05-10T22:32:17;4.00;3.25;3.00
66336;PMS1003;53139;45.576;5.304;2023-05-10T22:35:17;2.67;2.33;2.00
66336;PMS1003;53139;45.576;5.304;2023-05-10T22:38:18;4.50;4.25;3.00
66336;PMS1003;53139;45.576;5.304;2023-05-10T22:41:18;4.00;4.00;3.00
66336;PMS1003;53139;45.576;5.304;2023-05-10T22:44:21;4.50;4.00;3.00
66336;PMS1003;53139;45.576;5.304;2023-05-10T22:47:21;5.33;3.00;2.33
66336;PMS1003;53139;45.576;5.304;2023-05-10T22:50:22;6.75;4.00;3.00
66336;PMS1003;53139;45.576;5.304;2023-05-10T22:53:22;3.50;3.50;2.00
66336;PMS1003;53139;45.576;5.304;2023-05-10T22:56:23;5.50;4.00;3.00
66336;PMS1003;53139;45.576;5.304;2023-05-10T22:59:47;4.00;3.75;3.00
66336;PMS1003;53139;45.576;5.304;2023-05-10T23:03:16;3.00;3.00;2.00
66336;PMS1003;53139;45.576;5.304;2023-05-10T23:06:41;4.00;3.75;2.75
66336;PMS1003;53139;45.576;5.304;2023-05-10T23:10:10;3.25;2.75;2.25
66336;PMS1003;53139;45.576;5.304;2023-05-10T23:13:40;3.00;3.00;2.25
66336;PMS1003;53139;45.576;5.304;2023-05-10T23:17:01;2.50;2.00;1.75
66336;PMS1003;53139;45.576;5.304;2023-05-10T23:20:24;4.00;3.50;3.00
66336;PMS1003;53139;45.576;5.304;2023-05-10T23:23:45;2.75;2.75;2.00
66336;PMS1003;53139;45.576;5.304;2023-05-10T23:27:11;4.00;4.00;3.00
66336;PMS1003;53139;45.576;5.304;2023-05-10T23:30:41;3.00;3.00;2.00
66336;PMS1003;53139;45.576;5.304;2023-05-10T23:34:08;3.50;2.00;1.25
66336;PMS1003;53139;45.576;5.304;2023-05-10T23:37:36;3.50;1.75;0.75
66336;PMS1003;53139;45.576;5.304;2023-05-10T23:41:05;2.25;0.75;0.50
66336;PMS1003;53139;45.576;5.304;2023-05-10T23:44:27;1.25;1.25;1.00
66336;PMS1003;53139;45.576;5.304;2023-05-10T23:47:58;4.75;4.25;2.50
66336;PMS1003;53139;45.576;5.304;2023-05-10T23:51:30;2.50;2.50;1.50
66336;PMS1003;53139;45.576;5.304;2023-05-10T23:55:06;9.00;4.25;3.25
66336;PMS1003;53139;45.576;5.304;2023-05-10T23:58:43;7.00;3.00;2.00
